createdAt,value
2024-02-22T00:00:13.489Z,60.27
2024-02-22T00:01:13.496Z,60.78
2024-02-22T00:02:13.571Z,59.86
2024-02-22T00:03:13.465Z,60.47
2024-02-22T00:04:13.577Z,60.37
2024-02-22T00:05:13.641Z,60.27
2024-02-22T00:06:13.428Z,61.19
2024-02-22T00:07:13.450Z,61.19
2024-02-22T00:08:13.442Z,61.91
2024-02-22T00:09:13.397Z,62.52
2024-02-22T00:10:13.360Z,62.73
2024-02-22T00:11:13.423Z,63.44
2024-02-22T00:12:13.378Z,62.83
2024-02-22T00:13:13.326Z,63.85
2024-02-22T00:14:13.351Z,63.24
2024-02-22T00:15:13.315Z,63.75
2024-02-22T00:16:13.285Z,63.85
2024-02-22T00:17:13.368Z,63.85
2024-02-22T00:18:13.419Z,64.16
2024-02-22T00:19:13.317Z,64.87
2024-02-22T00:20:13.250Z,64.67
2024-02-22T00:21:13.246Z,64.36
2024-02-22T00:22:13.254Z,65.28
2024-02-22T00:23:13.287Z,64.77
2024-02-22T00:24:13.192Z,64.57
2024-02-22T00:25:13.160Z,65.59
2024-02-22T00:26:13.240Z,65.28
2024-02-22T00:27:13.138Z,66.31
2024-02-22T00:28:13.113Z,65.80
2024-02-22T00:29:13.221Z,65.69
2024-02-22T00:30:13.116Z,66.72
2024-02-22T00:31:13.097Z,66.75
2024-02-22T00:32:13.092Z,66.85
2024-02-22T00:33:13.122Z,67.16
2024-02-22T00:34:13.072Z,67.16
2024-02-22T00:35:13.088Z,66.95
2024-02-22T00:36:13.042Z,66.75
2024-02-22T00:37:13.007Z,67.36
2024-02-22T00:38:13.047Z,67.57
2024-02-22T00:39:12.993Z,67.16
2024-02-22T00:40:13.013Z,67.67
2024-02-22T00:41:13.117Z,66.85
2024-02-22T00:42:12.938Z,66.54
2024-02-22T00:43:12.919Z,67.36
2024-02-22T00:44:12.983Z,66.85
2024-02-22T00:45:12.922Z,67.57
2024-02-22T00:46:12.917Z,67.46
2024-02-22T00:47:12.987Z,67.05
2024-02-22T00:48:12.966Z,67.67
2024-02-22T00:49:12.918Z,67.57
2024-02-22T00:50:12.994Z,67.80
2024-02-22T00:51:12.832Z,68.01
2024-02-22T00:52:12.816Z,67.40
2024-02-22T00:53:12.932Z,68.21
2024-02-22T00:54:12.783Z,68.01
2024-02-22T00:55:12.779Z,67.19
2024-02-22T00:56:12.854Z,68.32
2024-02-22T00:57:12.757Z,68.62
2024-02-22T00:58:12.754Z,68.73
2024-02-22T00:59:12.801Z,68.83
2024-02-22T01:00:12.785Z,68.93
2024-02-22T01:01:12.743Z,68.93
2024-02-22T01:02:12.747Z,69.03
2024-02-22T01:03:12.677Z,69.65
2024-02-22T01:04:12.719Z,68.62
2024-02-22T01:05:12.723Z,68.73
2024-02-22T01:06:12.792Z,68.52
2024-02-22T01:07:12.610Z,69.13
2024-02-22T01:08:12.677Z,69.24
2024-02-22T01:09:12.606Z,69.34
2024-02-22T01:10:12.557Z,69.65
2024-02-22T01:11:12.656Z,69.34
2024-02-22T01:12:12.751Z,69.65
2024-02-22T01:13:12.531Z,69.65
2024-02-22T01:14:12.630Z,69.03
2024-02-22T01:15:12.505Z,69.44
2024-02-22T01:16:12.480Z,69.75
2024-02-22T01:17:12.613Z,69.95
2024-02-22T01:18:12.704Z,69.65
2024-02-22T01:19:12.552Z,69.54
2024-02-22T01:20:12.903Z,70.47
2024-02-22T01:21:12.451Z,70.67
2024-02-22T01:22:12.406Z,70.36
2024-02-22T01:23:12.433Z,70.57
2024-02-22T01:24:12.369Z,71.18
2024-02-22T01:25:12.382Z,71.28
2024-02-22T01:26:12.443Z,70.77
2024-02-22T01:27:12.351Z,70.67
2024-02-22T01:28:12.357Z,70.98
2024-02-22T01:29:12.381Z,71.28
2024-02-22T01:30:12.298Z,71.28
2024-02-22T01:31:12.306Z,70.87
2024-02-22T01:32:12.399Z,71.39
2024-02-22T01:33:12.329Z,71.18
2024-02-22T01:34:12.304Z,70.98
2024-02-22T01:35:12.378Z,70.87
2024-02-22T01:36:12.217Z,70.67
2024-02-22T01:37:12.228Z,70.36
2024-02-22T01:38:12.258Z,70.57
2024-02-22T01:39:12.194Z,70.77
2024-02-22T01:40:12.200Z,70.98
2024-02-22T01:41:12.269Z,70.98
2024-02-22T01:42:12.166Z,70.16
2024-02-22T01:43:12.176Z,70.67
2024-02-22T01:44:12.214Z,70.47
2024-02-22T01:45:12.145Z,70.16
2024-02-22T01:46:12.105Z,70.26
2024-02-22T01:47:12.212Z,70.26
2024-02-22T01:48:12.152Z,70.47
2024-02-22T01:49:12.118Z,70.87
2024-02-22T01:50:12.138Z,70.57
2024-02-22T01:51:12.046Z,70.67
2024-02-22T01:52:12.033Z,70.36
2024-02-22T01:53:12.026Z,70.26
2024-02-22T01:54:12.020Z,70.77
2024-02-22T01:55:12.018Z,70.87
2024-02-22T01:56:12.063Z,70.06
2024-02-22T01:57:11.963Z,70.67
2024-02-22T01:58:11.937Z,70.36
2024-02-22T01:59:12.065Z,70.67
2024-02-22T02:00:11.914Z,70.67
2024-02-22T02:01:11.966Z,70.87
2024-02-22T02:02:11.945Z,70.98
2024-02-22T02:03:11.937Z,70.77
2024-02-22T02:04:11.848Z,70.98
2024-02-22T02:05:11.892Z,70.87
2024-02-22T02:06:11.909Z,70.47
2024-02-22T02:07:11.813Z,70.77
2024-02-22T02:08:11.895Z,71.18
2024-02-22T02:09:11.796Z,71.28
2024-02-22T02:10:11.765Z,71.59
2024-02-22T02:11:11.957Z,71.49
2024-02-22T02:12:11.796Z,71.69
2024-02-22T02:13:11.794Z,72.20
2024-02-22T02:14:11.790Z,71.80
2024-02-22T02:15:11.753Z,72.31
2024-02-22T02:16:11.734Z,71.90
2024-02-22T02:17:11.804Z,72.11
2024-02-22T02:18:11.800Z,71.80
2024-02-22T02:19:11.722Z,72.11
2024-02-22T02:20:11.762Z,72.55
2024-02-22T02:21:11.629Z,72.55
2024-02-22T02:22:11.622Z,72.55
2024-02-22T02:23:11.716Z,72.86
2024-02-22T02:24:11.620Z,73.16
2024-02-22T02:25:11.598Z,73.16
2024-02-22T02:26:11.722Z,73.27
2024-02-22T02:27:11.568Z,72.86
2024-02-22T02:28:11.542Z,73.16
2024-02-22T02:29:11.569Z,73.36
2024-02-22T02:30:11.546Z,73.68
2024-02-22T02:31:11.494Z,73.68
2024-02-22T02:32:11.504Z,73.78
2024-02-22T02:33:11.603Z,73.47
2024-02-22T02:34:11.571Z,73.78
2024-02-22T02:35:11.512Z,74.08
2024-02-22T02:36:11.450Z,73.98
2024-02-22T02:37:11.408Z,73.88
2024-02-22T02:38:11.602Z,74.19
2024-02-22T02:39:11.440Z,74.19
2024-02-22T02:40:11.384Z,74.29
2024-02-22T02:41:11.454Z,74.49
2024-02-22T02:42:11.369Z,74.60
2024-02-22T02:43:11.338Z,74.80
2024-02-22T02:44:11.446Z,75.01
2024-02-22T02:45:11.349Z,75.21
2024-02-22T02:46:11.318Z,75.42
2024-02-22T02:47:11.483Z,75.73
2024-02-22T02:48:11.330Z,75.93
2024-02-22T02:49:11.339Z,76.34
2024-02-22T02:50:11.357Z,76.48
2024-02-22T02:51:11.251Z,76.68
2024-02-22T02:52:11.220Z,76.89
2024-02-22T02:53:11.253Z,76.89
2024-02-22T02:54:11.188Z,77.40
2024-02-22T02:55:11.196Z,77.61
2024-02-22T02:56:11.327Z,78.02
2024-02-22T02:57:11.174Z,78.02
2024-02-22T02:58:11.174Z,78.53
2024-02-22T02:59:11.198Z,78.63
2024-02-22T03:00:11.121Z,79.04
2024-02-22T03:01:11.106Z,79.14
2024-02-22T03:02:11.128Z,79.18
2024-02-22T03:03:11.096Z,79.59
2024-02-22T03:04:11.098Z,79.49
2024-02-22T03:05:11.147Z,79.80
2024-02-22T03:06:11.108Z,79.90
2024-02-22T03:07:11.027Z,79.90
2024-02-22T03:08:11.200Z,80.21
2024-02-22T03:09:11.007Z,80.62
2024-02-22T03:10:10.980Z,80.62
2024-02-22T03:11:11.055Z,80.72
2024-02-22T03:12:11.010Z,80.82
2024-02-22T03:13:10.964Z,80.72
2024-02-22T03:14:11.341Z,80.82
2024-02-22T03:15:10.910Z,81.23
2024-02-22T03:16:10.915Z,81.23
2024-02-22T03:17:11.033Z,81.64
2024-02-22T03:18:11.063Z,81.78
2024-02-22T03:19:11.034Z,81.88
2024-02-22T03:20:10.971Z,82.40
2024-02-22T03:21:10.851Z,82.60
2024-02-22T03:22:10.845Z,82.50
2024-02-22T03:23:10.964Z,82.70
2024-02-22T03:24:10.801Z,82.91
2024-02-22T03:25:10.791Z,82.81
2024-02-22T03:26:10.831Z,83.01
2024-02-22T03:27:10.775Z,83.22
2024-02-22T03:28:10.737Z,83.22
2024-02-22T03:29:10.738Z,83.32
2024-02-22T03:30:10.719Z,83.83
2024-02-22T03:31:10.718Z,83.56
2024-02-22T03:32:10.752Z,83.98
2024-02-22T03:33:10.735Z,84.18
2024-02-22T03:34:10.723Z,84.18
2024-02-22T03:35:10.694Z,83.87
2024-02-22T03:36:10.650Z,83.87
2024-02-22T03:37:10.630Z,84.18
2024-02-22T03:38:10.664Z,84.39
2024-02-22T03:39:10.601Z,84.39
2024-02-22T03:40:10.607Z,84.49
2024-02-22T03:41:10.641Z,84.69
2024-02-22T03:42:10.558Z,84.59
2024-02-22T03:43:10.553Z,84.59
2024-02-22T03:44:10.673Z,84.90
2024-02-22T03:45:10.533Z,85.31
2024-02-22T03:46:10.522Z,85.31
2024-02-22T03:47:10.558Z,85.21
2024-02-22T03:48:10.535Z,85.52
2024-02-22T03:49:10.507Z,85.52
2024-02-22T03:50:10.607Z,85.31
2024-02-22T03:51:10.451Z,85.41
2024-02-22T03:52:10.431Z,85.21
2024-02-22T03:53:10.470Z,85.52
2024-02-22T03:54:10.418Z,85.52
2024-02-22T03:55:10.393Z,85.35
2024-02-22T03:56:10.432Z,85.41
2024-02-22T03:57:10.359Z,85.25
2024-02-22T03:58:10.347Z,85.25
2024-02-22T03:59:10.418Z,85.14
2024-02-22T04:00:10.326Z,85.25
2024-02-22T04:01:10.343Z,85.14
2024-02-22T04:02:10.338Z,85.25
2024-02-22T04:03:10.285Z,85.14
2024-02-22T04:04:10.322Z,85.35
2024-02-22T04:05:10.330Z,85.35
2024-02-22T04:06:10.308Z,85.76
2024-02-22T04:07:10.224Z,85.55
2024-02-22T04:08:10.325Z,85.97
2024-02-22T04:09:10.216Z,85.97
2024-02-22T04:10:10.199Z,85.66
2024-02-22T04:11:10.279Z,85.66
2024-02-22T04:12:10.192Z,85.76
2024-02-22T04:13:10.199Z,85.97
2024-02-22T04:14:10.206Z,85.97
2024-02-22T04:15:10.115Z,86.07
2024-02-22T04:16:10.124Z,86.07
2024-02-22T04:17:10.244Z,85.76
2024-02-22T04:18:10.197Z,85.55
2024-02-22T04:19:10.181Z,85.86
2024-02-22T04:20:10.108Z,86.48
2024-02-22T04:21:10.061Z,85.97
2024-02-22T04:22:10.046Z,85.97
2024-02-22T04:23:10.084Z,86.58
2024-02-22T04:24:10.021Z,86.58
2024-02-22T04:25:09.991Z,86.17
2024-02-22T04:26:10.019Z,86.38
2024-02-22T04:27:09.974Z,86.07
2024-02-22T04:28:09.976Z,86.27
2024-02-22T04:29:10.005Z,86.38
2024-02-22T04:30:09.931Z,86.79
2024-02-22T04:31:09.912Z,86.89
2024-02-22T04:32:09.955Z,86.58
2024-02-22T04:33:09.971Z,86.58
2024-02-22T04:34:09.928Z,86.99
2024-02-22T04:35:10.125Z,87.10
2024-02-22T04:36:09.872Z,87.45
2024-02-22T04:37:09.853Z,87.45
2024-02-22T04:38:09.895Z,87.55
2024-02-22T04:39:09.890Z,87.45
2024-02-22T04:40:09.803Z,87.75
2024-02-22T04:41:09.835Z,87.85
2024-02-22T04:42:09.808Z,87.85
2024-02-22T04:43:09.770Z,87.55
2024-02-22T04:44:09.820Z,87.75
2024-02-22T04:45:09.735Z,87.45
2024-02-22T04:46:09.719Z,87.24
2024-02-22T04:47:09.788Z,87.24
2024-02-22T04:48:09.881Z,87.45
2024-02-22T04:49:09.759Z,87.45
2024-02-22T04:50:09.750Z,87.55
2024-02-22T04:51:09.665Z,87.65
2024-02-22T04:52:09.667Z,87.34
2024-02-22T04:53:09.718Z,86.93
2024-02-22T04:54:09.654Z,87.04
2024-02-22T04:55:09.626Z,87.55
2024-02-22T04:56:09.660Z,87.34
2024-02-22T04:57:09.580Z,87.45
2024-02-22T04:58:09.585Z,87.75
2024-02-22T04:59:09.635Z,87.65
2024-02-22T05:00:09.645Z,87.65
2024-02-22T05:01:09.607Z,87.65
2024-02-22T05:02:09.652Z,87.45
2024-02-22T05:03:09.497Z,87.65
2024-02-22T05:04:09.676Z,87.55
2024-02-22T05:05:09.572Z,87.34
2024-02-22T05:06:09.502Z,87.24
2024-02-22T05:07:09.456Z,87.34
2024-02-22T05:08:09.507Z,87.04
2024-02-22T05:09:09.433Z,87.45
2024-02-22T05:10:09.438Z,87.55
2024-02-22T05:11:09.510Z,87.65
2024-02-22T05:12:09.444Z,87.85
2024-02-22T05:13:09.391Z,87.96
2024-02-22T05:14:09.461Z,88.17
2024-02-22T05:15:09.362Z,88.37
2024-02-22T05:16:09.329Z,88.27
2024-02-22T05:17:09.375Z,88.37
2024-02-22T05:18:09.483Z,88.37
2024-02-22T05:19:09.398Z,88.47
2024-02-22T05:20:09.405Z,88.47
2024-02-22T05:21:09.283Z,88.06
2024-02-22T05:22:09.254Z,88.57
2024-02-22T05:23:09.305Z,88.89
2024-02-22T05:24:09.266Z,88.68
2024-02-22T05:25:09.216Z,88.89
2024-02-22T05:26:09.262Z,88.68
2024-02-22T05:27:09.190Z,88.47
2024-02-22T05:28:09.173Z,88.68
2024-02-22T05:29:09.303Z,88.68
2024-02-22T05:30:09.170Z,88.68
2024-02-22T05:31:09.148Z,88.98
2024-02-22T05:32:09.196Z,89.40
2024-02-22T05:33:09.202Z,89.50
2024-02-22T05:34:09.203Z,89.50
2024-02-22T05:35:09.172Z,89.70
2024-02-22T05:36:09.117Z,89.50
2024-02-22T05:37:09.066Z,89.19
2024-02-22T05:38:09.169Z,89.29
2024-02-22T05:39:09.041Z,89.19
2024-02-22T05:40:09.028Z,89.40
2024-02-22T05:41:09.056Z,89.40
2024-02-22T05:42:08.992Z,89.19
2024-02-22T05:43:08.994Z,89.19
2024-02-22T05:44:08.990Z,89.29
2024-02-22T05:45:08.957Z,89.60
2024-02-22T05:46:09.024Z,89.60
2024-02-22T05:47:09.034Z,90.32
2024-02-22T05:48:09.064Z,90.32
2024-02-22T05:49:09.135Z,90.42
2024-02-22T05:50:08.948Z,90.53
2024-02-22T05:51:08.888Z,90.53
2024-02-22T05:52:08.888Z,90.42
2024-02-22T05:53:08.942Z,90.42
2024-02-22T05:54:08.852Z,90.94
2024-02-22T05:55:08.829Z,91.14
2024-02-22T05:56:08.839Z,90.32
2024-02-22T05:57:11.637Z,90.63
2024-02-22T05:58:08.801Z,90.53
2024-02-22T05:59:08.816Z,90.63
2024-02-22T06:00:08.771Z,90.94
2024-02-22T06:01:08.884Z,91.14
2024-02-22T06:02:08.853Z,91.14
2024-02-22T06:03:10.634Z,91.14
2024-02-22T06:04:08.748Z,91.66
2024-02-22T06:05:08.890Z,91.66
2024-02-22T06:06:08.699Z,91.55
2024-02-22T06:07:08.717Z,91.97
2024-02-22T06:08:08.732Z,92.07
2024-02-22T06:09:08.651Z,91.76
2024-02-22T06:10:08.650Z,91.55
2024-02-22T06:11:08.674Z,91.97
2024-02-22T06:12:08.612Z,92.07
2024-02-22T06:13:08.740Z,91.66
2024-02-22T06:14:08.594Z,91.76
2024-02-22T06:15:08.581Z,91.76
2024-02-22T06:16:08.571Z,91.97
2024-02-22T06:17:08.567Z,92.07
2024-02-22T06:18:08.588Z,92.58
2024-02-22T06:19:08.579Z,92.27
2024-02-22T06:20:08.539Z,92.17
2024-02-22T06:21:08.471Z,92.58
2024-02-22T06:22:08.500Z,92.38
2024-02-22T06:23:08.489Z,92.38
2024-02-22T06:24:08.487Z,92.38
2024-02-22T06:25:08.423Z,92.27
2024-02-22T06:26:08.464Z,92.48
2024-02-22T06:27:08.413Z,92.99
2024-02-22T06:28:08.415Z,92.69
2024-02-22T06:29:08.402Z,92.58
2024-02-22T06:30:08.387Z,92.79
2024-02-22T06:31:08.356Z,93.40
2024-02-22T06:32:08.386Z,93.46
2024-02-22T06:33:08.381Z,93.30
2024-02-22T06:34:08.379Z,93.30
2024-02-22T06:35:08.394Z,93.30
2024-02-22T06:36:08.291Z,93.61
2024-02-22T06:37:08.278Z,93.67
2024-02-22T06:38:08.337Z,93.82
2024-02-22T06:39:08.251Z,93.71
2024-02-22T06:40:08.246Z,93.92
2024-02-22T06:41:08.333Z,93.82
2024-02-22T06:42:08.219Z,93.82
2024-02-22T06:43:08.216Z,93.87
2024-02-22T06:44:08.255Z,93.98
2024-02-22T06:45:08.168Z,93.77
2024-02-22T06:46:08.162Z,93.82
2024-02-22T06:47:08.166Z,93.98
2024-02-22T06:48:08.211Z,94.12
2024-02-22T06:49:08.189Z,93.87
2024-02-22T06:50:08.179Z,93.98
2024-02-22T06:51:08.130Z,94.18
2024-02-22T06:52:08.092Z,93.98
2024-02-22T06:53:08.156Z,93.87
2024-02-22T06:54:08.073Z,93.87
2024-02-22T06:55:08.038Z,93.57
2024-02-22T06:56:08.042Z,93.67
2024-02-22T06:57:08.028Z,93.57
2024-02-22T06:58:08.000Z,93.57
2024-02-22T06:59:08.085Z,93.57
2024-02-22T07:00:07.996Z,93.98
2024-02-22T07:01:08.059Z,94.08
2024-02-22T07:02:08.001Z,94.08
2024-02-22T07:03:07.929Z,94.29
2024-02-22T07:04:07.958Z,94.18
2024-02-22T07:05:07.937Z,93.77
2024-02-22T07:06:08.063Z,93.77
2024-02-22T07:07:07.932Z,93.87
2024-02-22T07:08:07.964Z,94.08
2024-02-22T07:09:07.852Z,93.98
2024-02-22T07:10:07.928Z,93.77
2024-02-22T07:11:07.940Z,93.87
2024-02-22T07:12:07.914Z,94.08
2024-02-22T07:13:07.813Z,94.29
2024-02-22T07:14:07.848Z,94.08
2024-02-22T07:15:07.801Z,94.08
2024-02-22T07:16:07.807Z,93.77
2024-02-22T07:17:07.789Z,93.77
2024-02-22T07:18:07.902Z,93.77
2024-02-22T07:19:07.851Z,93.67
2024-02-22T07:20:07.878Z,93.87
2024-02-22T07:21:07.721Z,93.93
2024-02-22T07:22:07.688Z,93.83
2024-02-22T07:23:07.712Z,93.46
2024-02-22T07:24:07.654Z,93.63
2024-02-22T07:25:07.779Z,93.63
2024-02-22T07:26:07.658Z,93.73
2024-02-22T07:27:07.625Z,93.63
2024-02-22T07:28:07.611Z,93.42
2024-02-22T07:29:11.563Z,93.21
2024-02-22T07:30:08.599Z,93.01
2024-02-22T07:31:07.566Z,92.80
2024-02-22T07:32:07.588Z,92.80
2024-02-22T07:33:07.703Z,92.91
2024-02-22T07:34:07.740Z,93.01
2024-02-22T07:35:07.584Z,92.80
2024-02-22T07:36:10.486Z,92.91
2024-02-22T07:37:07.504Z,92.91
2024-02-22T07:38:07.525Z,92.80
2024-02-22T07:39:07.600Z,92.50
2024-02-22T07:40:07.466Z,92.50
2024-02-22T07:41:07.467Z,92.80
2024-02-22T07:42:07.436Z,92.91
2024-02-22T07:43:07.412Z,93.01
2024-02-22T07:44:10.945Z,93.01
2024-02-22T07:45:07.401Z,93.01
2024-02-22T07:46:07.499Z,93.01
2024-02-22T07:47:07.376Z,93.01
2024-02-22T07:48:07.530Z,92.91
2024-02-22T07:49:07.597Z,92.80
2024-02-22T07:50:07.338Z,92.70
2024-02-22T07:51:07.306Z,92.76
2024-02-22T07:52:07.298Z,92.76
2024-02-22T07:53:07.438Z,92.76
2024-02-22T07:54:07.283Z,92.66
2024-02-22T07:55:07.328Z,92.66
2024-02-22T07:56:07.281Z,92.66
2024-02-22T07:57:07.238Z,92.55
2024-02-22T07:58:07.333Z,92.35
2024-02-22T07:59:07.246Z,92.04
2024-02-22T08:00:07.208Z,92.04
2024-02-22T08:01:07.233Z,92.04
2024-02-22T08:02:07.209Z,91.94
2024-02-22T08:03:07.178Z,91.94
2024-02-22T08:04:09.875Z,92.25
2024-02-22T08:05:07.483Z,92.21
2024-02-22T08:06:07.115Z,92.00
2024-02-22T08:07:07.151Z,92.10
2024-02-22T08:08:07.116Z,92.41
2024-02-22T08:09:07.118Z,91.90
2024-02-22T08:10:07.153Z,91.59
2024-02-22T08:11:07.100Z,91.38
2024-02-22T08:12:07.092Z,91.49
2024-02-22T08:13:07.053Z,91.69
2024-02-22T08:14:07.047Z,91.49
2024-02-22T08:15:06.999Z,91.44
2024-02-22T08:16:07.097Z,91.55
2024-02-22T08:17:06.991Z,91.44
2024-02-22T08:18:07.136Z,91.24
2024-02-22T08:19:06.963Z,91.24
2024-02-22T08:20:07.172Z,91.14
2024-02-22T08:21:07.061Z,91.03
2024-02-22T08:22:06.900Z,91.14
2024-02-22T08:23:06.959Z,90.32
2024-02-22T08:24:06.870Z,90.42
2024-02-22T08:25:06.864Z,90.32
2024-02-22T08:26:06.936Z,90.37
2024-02-22T08:27:06.975Z,90.28
2024-02-22T08:28:07.837Z,90.17
2024-02-22T08:29:06.914Z,89.97
2024-02-22T08:30:06.814Z,90.07
2024-02-22T08:31:06.817Z,89.87
2024-02-22T08:32:06.803Z,89.66
2024-02-22T08:33:06.855Z,89.76
2024-02-22T08:34:06.962Z,89.04
2024-02-22T08:35:06.812Z,88.02
2024-02-22T08:36:06.721Z,88.12
2024-02-22T08:37:06.697Z,88.33
2024-02-22T08:38:06.777Z,88.12
2024-02-22T08:39:06.692Z,87.92
2024-02-22T08:40:15.998Z,87.51
2024-02-22T08:41:07.794Z,87.51
2024-02-22T08:42:06.643Z,88.23
2024-02-22T08:43:06.639Z,87.71
2024-02-22T08:44:06.988Z,87.71
2024-02-22T08:45:06.616Z,87.47
2024-02-22T08:46:06.616Z,87.67
2024-02-22T08:47:06.627Z,87.16
2024-02-22T08:48:06.790Z,87.26
2024-02-22T08:49:06.890Z,86.85
2024-02-22T08:50:06.570Z,87.57
2024-02-22T08:51:06.548Z,87.16
2024-02-22T08:52:06.513Z,87.06
2024-02-22T08:53:06.623Z,87.47
2024-02-22T08:54:06.491Z,87.26
2024-02-22T08:55:06.502Z,86.96
2024-02-22T08:56:06.541Z,86.96
2024-02-22T08:57:06.450Z,86.44
2024-02-22T08:58:06.421Z,86.65
2024-02-22T08:59:06.591Z,86.85
2024-02-22T09:00:06.413Z,87.37
2024-02-22T09:01:06.471Z,86.61
2024-02-22T09:02:06.437Z,87.02
2024-02-22T09:03:06.367Z,86.61
2024-02-22T09:04:06.414Z,86.20
2024-02-22T09:05:06.437Z,86.40
2024-02-22T09:06:06.449Z,86.81
2024-02-22T09:07:06.402Z,86.77
2024-02-22T09:08:06.436Z,86.88
2024-02-22T09:09:06.308Z,86.46
2024-02-22T09:10:06.286Z,86.67
2024-02-22T09:11:06.379Z,86.16
2024-02-22T09:12:06.344Z,85.91
2024-02-22T09:13:06.237Z,86.32
2024-02-22T09:14:06.277Z,86.22
2024-02-22T09:15:06.226Z,86.12
2024-02-22T09:16:06.188Z,85.71
2024-02-22T09:17:06.255Z,85.50
2024-02-22T09:18:06.375Z,85.61
2024-02-22T09:19:06.241Z,85.10
2024-02-22T09:20:06.227Z,84.69
2024-02-22T09:21:06.217Z,85.50
2024-02-22T09:22:06.103Z,85.36
2024-02-22T09:23:06.275Z,85.26
2024-02-22T09:24:06.099Z,84.14
2024-02-22T09:25:06.071Z,83.73
2024-02-22T09:26:06.125Z,83.69
2024-02-22T09:27:06.059Z,83.79
2024-02-22T09:28:06.052Z,83.48
2024-02-22T09:29:06.022Z,83.14
2024-02-22T09:30:06.050Z,83.24
2024-02-22T09:31:06.039Z,82.93
2024-02-22T09:32:06.027Z,82.39
2024-02-22T09:33:06.750Z,82.45
2024-02-22T09:34:06.169Z,82.14
2024-02-22T09:35:05.978Z,81.59
2024-02-22T09:36:05.943Z,81.49
2024-02-22T09:37:05.945Z,81.09
2024-02-22T09:38:06.391Z,81.39
2024-02-22T09:39:05.954Z,80.88
2024-02-22T09:40:05.907Z,80.57
2024-02-22T09:41:05.910Z,80.68
2024-02-22T09:42:05.855Z,80.78
2024-02-22T09:43:05.865Z,81.29
2024-02-22T09:44:05.847Z,81.04
2024-02-22T09:45:05.814Z,79.82
2024-02-22T09:46:05.793Z,80.23
2024-02-22T09:47:05.842Z,79.72
2024-02-22T09:48:05.854Z,80.02
2024-02-22T09:49:08.412Z,79.93
2024-02-22T09:50:05.802Z,79.93
2024-02-22T09:51:05.740Z,79.72
2024-02-22T09:52:05.726Z,79.41
2024-02-22T09:53:05.747Z,79.41
2024-02-22T09:54:05.705Z,80.02
2024-02-22T09:55:05.690Z,80.13
2024-02-22T09:56:05.726Z,80.13
2024-02-22T09:57:05.702Z,79.72
2024-02-22T09:58:05.639Z,79.93
2024-02-22T09:59:05.738Z,79.72
2024-02-22T10:00:05.637Z,79.41
2024-02-22T10:01:05.664Z,79.52
2024-02-22T10:02:05.714Z,79.82
2024-02-22T10:03:05.617Z,79.82
2024-02-22T10:04:05.544Z,79.52
2024-02-22T10:05:05.657Z,79.41
2024-02-22T10:06:05.646Z,79.41
2024-02-22T10:07:05.557Z,79.62
2024-02-22T10:08:05.542Z,78.16
2024-02-22T10:09:05.503Z,78.66
2024-02-22T10:10:05.524Z,79.38
2024-02-22T10:11:05.567Z,79.48
2024-02-22T10:12:05.585Z,79.89
2024-02-22T10:13:06.476Z,79.79
2024-02-22T10:14:05.572Z,79.27
2024-02-22T10:15:08.749Z,79.07
2024-02-22T10:16:05.399Z,78.97
2024-02-22T10:17:05.465Z,79.14
2024-02-22T10:18:05.462Z,79.75
2024-02-22T10:19:05.421Z,79.03
2024-02-22T10:20:05.411Z,77.71
2024-02-22T10:21:05.361Z,77.71
2024-02-22T10:22:05.350Z,78.02
2024-02-22T10:23:05.340Z,78.53
2024-02-22T10:24:05.299Z,77.61
2024-02-22T10:25:05.309Z,77.91
2024-02-22T10:26:05.321Z,77.81
2024-02-22T10:27:07.456Z,77.71
2024-02-22T10:28:05.248Z,77.20
2024-02-22T10:29:05.287Z,77.71
2024-02-22T10:30:05.236Z,78.08
2024-02-22T10:31:05.249Z,77.87
2024-02-22T10:32:05.225Z,77.87
2024-02-22T10:33:05.293Z,77.37
2024-02-22T10:34:05.248Z,77.33
2024-02-22T10:35:05.207Z,77.23
2024-02-22T10:36:05.168Z,77.33
2024-02-22T10:37:05.143Z,77.23
2024-02-22T10:38:05.390Z,77.33
2024-02-22T10:39:05.114Z,77.09
2024-02-22T10:40:05.388Z,76.38
2024-02-22T10:41:05.130Z,76.68
2024-02-22T10:42:05.059Z,75.77
2024-02-22T10:43:05.042Z,75.77
2024-02-22T10:44:05.084Z,75.77
2024-02-22T10:45:05.041Z,75.98
2024-02-22T10:46:05.016Z,76.59
2024-02-22T10:47:05.008Z,76.28
2024-02-22T10:48:05.035Z,76.28
2024-02-22T10:49:05.004Z,75.46
2024-02-22T10:50:04.988Z,75.30
2024-02-22T10:51:04.950Z,75.70
2024-02-22T10:52:04.914Z,75.91
2024-02-22T10:53:05.174Z,76.21
2024-02-22T10:54:04.924Z,75.91
2024-02-22T10:55:04.896Z,75.09
2024-02-22T10:56:04.930Z,75.70
2024-02-22T10:57:04.854Z,76.11
2024-02-22T10:58:04.880Z,76.42
2024-02-22T10:59:04.900Z,76.52
2024-02-22T11:00:04.899Z,76.52
2024-02-22T11:01:04.814Z,76.62
2024-02-22T11:02:04.837Z,76.52
2024-02-22T11:03:04.869Z,76.21
2024-02-22T11:04:04.866Z,76.42
2024-02-22T11:05:05.079Z,76.48
2024-02-22T11:06:04.737Z,75.81
2024-02-22T11:07:04.811Z,76.42
2024-02-22T11:08:04.738Z,76.21
2024-02-22T11:09:04.752Z,76.21
2024-02-22T11:10:04.689Z,75.70
2024-02-22T11:11:07.159Z,76.01
2024-02-22T11:12:04.763Z,76.11
2024-02-22T11:13:04.886Z,76.11
2024-02-22T11:14:04.697Z,76.42
2024-02-22T11:15:04.627Z,76.11
2024-02-22T11:16:04.634Z,76.18
2024-02-22T11:17:04.607Z,76.28
2024-02-22T11:18:04.633Z,75.98
2024-02-22T11:19:04.641Z,75.57
2024-02-22T11:20:04.583Z,75.67
2024-02-22T11:21:04.540Z,75.46
2024-02-22T11:22:04.533Z,76.07
2024-02-22T11:23:04.603Z,76.07
2024-02-22T11:24:04.568Z,75.46
2024-02-22T11:25:04.491Z,75.37
2024-02-22T11:26:04.576Z,75.53
2024-02-22T11:27:04.459Z,75.84
2024-02-22T11:28:04.491Z,75.63
2024-02-22T11:29:04.477Z,75.43
2024-02-22T11:30:04.431Z,75.02
2024-02-22T11:31:04.425Z,74.62
2024-02-22T11:32:04.449Z,73.97
2024-02-22T11:33:04.569Z,74.28
2024-02-22T11:34:04.456Z,74.58
2024-02-22T11:35:04.620Z,74.99
2024-02-22T11:36:04.358Z,74.58
2024-02-22T11:37:04.357Z,74.88
2024-02-22T11:38:04.516Z,73.22
2024-02-22T11:39:04.314Z,73.13
2024-02-22T11:40:04.304Z,73.63
2024-02-22T11:41:04.357Z,73.63
2024-02-22T11:42:04.285Z,72.82
2024-02-22T11:43:04.266Z,73.43
2024-02-22T11:44:04.287Z,73.43
2024-02-22T11:45:04.248Z,73.13
2024-02-22T11:46:04.215Z,73.83
2024-02-22T11:47:04.294Z,73.29
2024-02-22T11:48:04.325Z,73.43
2024-02-22T11:49:04.211Z,73.22
2024-02-22T11:50:04.209Z,73.13
2024-02-22T11:51:04.177Z,72.31
2024-02-22T11:52:04.175Z,73.33
2024-02-22T11:53:04.867Z,73.43
2024-02-22T11:54:04.127Z,73.13
2024-02-22T11:55:04.201Z,72.92
2024-02-22T11:56:04.148Z,72.31
2024-02-22T11:57:04.157Z,73.02
2024-02-22T11:58:04.193Z,73.33
2024-02-22T11:59:04.222Z,73.22
2024-02-22T12:00:04.073Z,73.13
2024-02-22T12:01:04.108Z,72.82
2024-02-22T12:02:04.047Z,72.92
2024-02-22T12:03:03.998Z,73.43
2024-02-22T12:04:04.053Z,74.14
2024-02-22T12:05:04.184Z,73.83
2024-02-22T12:06:04.182Z,73.13
2024-02-22T12:07:04.157Z,73.02
2024-02-22T12:08:04.053Z,73.43
2024-02-22T12:09:03.994Z,73.09
2024-02-22T12:10:03.964Z,73.50
2024-02-22T12:11:04.060Z,73.29
2024-02-22T12:12:04.112Z,72.69
2024-02-22T12:13:03.876Z,73.19
2024-02-22T12:14:04.009Z,72.89
2024-02-22T12:15:03.849Z,72.58
2024-02-22T12:16:03.881Z,72.99
2024-02-22T12:17:03.863Z,72.48
2024-02-22T12:18:03.850Z,72.31
2024-02-22T12:19:03.807Z,72.72
2024-02-22T12:20:03.924Z,72.62
2024-02-22T12:21:03.778Z,72.72
2024-02-22T12:22:03.747Z,72.92
2024-02-22T12:23:03.763Z,72.72
2024-02-22T12:24:03.738Z,72.99
2024-02-22T12:25:03.722Z,72.78
2024-02-22T12:26:03.811Z,72.17
2024-02-22T12:27:03.698Z,72.72
2024-02-22T12:28:03.693Z,72.62
2024-02-22T12:29:03.707Z,72.82
2024-02-22T12:30:03.693Z,72.52
2024-02-22T12:31:03.633Z,73.02
2024-02-22T12:32:03.705Z,73.43
2024-02-22T12:33:03.772Z,73.43
2024-02-22T12:34:03.955Z,73.33
2024-02-22T12:35:03.643Z,72.92
2024-02-22T12:36:03.621Z,72.92
2024-02-22T12:37:03.545Z,73.53
2024-02-22T12:38:03.609Z,73.13
2024-02-22T12:39:03.545Z,73.43
2024-02-22T12:40:03.528Z,73.43
2024-02-22T12:41:03.536Z,73.53
2024-02-22T12:42:03.523Z,73.74
2024-02-22T12:43:03.484Z,73.63
2024-02-22T12:44:03.587Z,72.85
2024-02-22T12:45:03.452Z,73.36
2024-02-22T12:46:03.490Z,73.36
2024-02-22T12:47:03.420Z,73.16
2024-02-22T12:48:03.480Z,73.36
2024-02-22T12:49:03.474Z,73.67
2024-02-22T12:50:03.407Z,74.01
2024-02-22T12:51:03.380Z,74.18
2024-02-22T12:52:03.359Z,74.21